Airfield :
LOGIN :

Register | Disclaimer

   EN    FR    IT 

 










Legend :    VFR   Marginal VFR   IFR   Intensive IFR   Very Intensive IFR
Visi :
Ceiling :
>= 8 km
>= 3000ft
5 to 8 km
1000 to 3000 ft
1500m to 5 km
500 to 1000 ft
800 to 1500m
200 to 500 ft
< 800m
< 200 ft
Symbols :   Thunderstorms  Fog  Heavy snow  Heavy precipitations  Wind > 20 kt
SIGMETs :     Misc.  Thunderstorms  Icing  Turbulence  Mountain Waves  Volcanic Ashes






- Airport Elevation : 1106 ft


LFSO - Nancy / Ochey

CURRENT METAR :
  • 232100Z AUTO 11005KT 090V150 2600 BR OVC002 11/11 Q1011

EXPIRED METARs :
  • 232030Z AUTO 15004KT 3400 BR BKN005 11/10 Q1011
  • 232000Z AUTO 12006KT 4000 BR BKN008 BKN250 11/10 Q1010
  • 231930Z AUTO 13004KT 090V150 3100 BR FEW010 11/11 Q1010
  • 231900Z AUTO 08003KT 050V120 4200 BR FEW009 SCT250 12/11 Q1010
  • 231830Z AUTO VRB01KT 4900 BR NSC 12/11 Q1010

TAF TAF LFSO
Valid from the 23 at 15:00 until the 24 at 15:00 UTC


231400Z 2315/2415 10005KT CAVOK
BECMG 2318/2320 4000 BR
BECMG 2400/2402 18010KT
BECMG 2403/2405 7000 NSW
BECMG 2408/2410 BKN010
BECMG 2410/2412 SCT020



MET'MAP, your aeronautical weather chart ! - Copyright ORBIFLY December 2007 - Disclaimer

ORBIFLY MET'MAP TEAM :

Programming & Development : Alexandra Zaïnal
Concept & Development : Baudouin d'Aumeries
Co-Development & Prog : Marc-Olivier Méhu
Technical & hardware support : Manuel Goepfert

Contact : metmap@orbifly.com




SOURCES & CREDITS :

   NOAA